Frederike Selmer — V7QY8 — position and weather

sailwx.info

Track history (hours):
 
Tides and Currents Weather Stations Pressure Air Temp Water Temp Dewpoint Dewpoint Depression Visibility Wind Speed Wind Dir Waves Ship Positions

Frederike Selmer

Last reported at 2017-Feb-02 04:33 UTC. Time now 2017-Feb-20 22:30 UTC.
Position S 30°48' E 030°57'.
Warning: this ship's position is 18 days out of date.

Length 188 m; draft 9.5 m.

Type: Cargo ship. MMSI: 538007012.

Date/timePositionNaut miles runAvg speedWind from/ knotsBaromVisibWave heightAir tempDewpointWater temp
2017-Feb-02 04:33S 30°48' E 030°57'1212.5
2017-Feb-02 03:34S 30°38' E 031°06'1212.4
2017-Feb-02 02:33S 30°28' E 031°14'1212.2
2017-Feb-02 01:34S 30°18' E 031°23'1212.5
2017-Feb-02 00:33S 30°08' E 031°31'1313.2
2017-Feb-01 23:34S 29°57' E 031°41'1414.1
2017-Feb-01 22:33S 29°46' E 031°51'1413.8
2017-Feb-01 21:33S 29°35' E 032°00'1413.6
2017-Feb-01 20:33S 29°24' E 032°09'1413.5
2017-Feb-01 19:33S 29°13' E 032°19'1413.6
2017-Feb-01 18:32S 29°02' E 032°28'1313.0
2017-Feb-01 17:33S 28°50' E 032°32'1412.9
2017-Feb-01 16:28S 28°36' E 032°36'1212.9
2017-Feb-01 15:33S 28°25' E 032°39'  
Track history (hours):
 
Tides and Currents Weather Stations Pressure Air Temp Water Temp Dewpoint Dewpoint Depression Visibility Wind Speed Wind Dir Waves Ship Positions

Frederike Selmer

Last reported at 2017-Feb-02 04:33 UTC. Time now 2017-Feb-20 22:30 UTC.
Position S 30°48' E 030°57'.
Warning: this ship's position is 18 days out of date.

Length 188 m; draft 9.5 m.

Type: Cargo ship. MMSI: 538007012.

Date/timePositionNaut miles runAvg speedWind from/ knotsBaromVisibWave heightAir tempDewpointWater temp
2017-Feb-02 04:33S 30°48' E 030°57'1212.5
2017-Feb-02 03:34S 30°38' E 031°06'1212.4
2017-Feb-02 02:33S 30°28' E 031°14'1212.2
2017-Feb-02 01:34S 30°18' E 031°23'1212.5
2017-Feb-02 00:33S 30°08' E 031°31'1313.2
2017-Feb-01 23:34S 29°57' E 031°41'1414.1
2017-Feb-01 22:33S 29°46' E 031°51'1413.8
2017-Feb-01 21:33S 29°35' E 032°00'1413.6
2017-Feb-01 20:33S 29°24' E 032°09'1413.5
2017-Feb-01 19:33S 29°13' E 032°19'1413.6
2017-Feb-01 18:32S 29°02' E 032°28'1313.0
2017-Feb-01 17:33S 28°50' E 032°32'1412.9
2017-Feb-01 16:28S 28°36' E 032°36'1212.9
2017-Feb-01 15:33S 28°25' E 032°39'  

Dump ship's entire track history